American Integrity — WDD2875 — position and weather

sailwx.info

Track history (hours):
 
Tides and Currents Weather Stations Pressure Air Temp Water Temp Dewpoint Dewpoint Depression Visibility Wind Speed Wind Dir Waves Ship Positions

American Integrity

Owner: American Steamship Company, Williamsville, NY. More information available from US FCC via Universal Licensing System and Coast Guard Vessel Documentation Center.

Last reported at 2017-Sep-21 01:28 UTC. Time now 2017-Sep-24 05:21 UTC.
Position N 46°24' W 084°14'.

; draft 8 m.

Type: Cargo ship. MMSI: 367120990.

Date/timePositionNaut miles runAvg speedWind from/ knotsBaromVisibWave heightAir tempDewpointWater temp
2017-Sep-21 01:28N 46°24' W 084°14'4 6.5
2017-Sep-21 00:54N 46°21' W 084°12'6 7.1
2017-Sep-21 00:05N 46°16' W 084°07'1 6.8
2017-Sep-20 23:55N 46°15' W 084°06'9 9.3
2017-Sep-20 23:00N 46°07' W 084°01'5 9.9
2017-Sep-20 22:30N 46°03' W 083°58'5 9.9
2017-Sep-20 22:00N 45°59' W 083°53'510.6
2017-Sep-20 21:30N 45°55' W 083°58'612.1
2017-Sep-20 21:00N 45°52' W 084°05'611.8
2017-Sep-20 20:30N 45°51' W 084°14'612.1
2017-Sep-20 20:00N 45°51' W 084°22'612.1
2017-Sep-20 19:30N 45°51' W 084°31'611.7
2017-Sep-20 19:00N 45°50' W 084°39'612.1
2017-Sep-20 18:30N 45°49' W 084°48'612.3
2017-Sep-20 18:00N 45°50' W 084°57'612.5
2017-Sep-20 17:30N 45°50' W 085°06'510.3
2017-Sep-20 17:00N 45°46' W 085°09'612.6
2017-Sep-20 16:30N 45°41' W 085°14'612.8
2017-Sep-20 16:00N 45°36' W 085°20'612.8
2017-Sep-20 15:30N 45°31' W 085°25'612.7
2017-Sep-20 15:00N 45°26' W 085°31'1312.7
2017-Sep-20 14:00N 45°15' W 085°41'612.7
2017-Sep-20 13:30N 45°10' W 085°47'712.8
2017-Sep-20 12:59N 45°05' W 085°52'612.5
2017-Sep-20 12:30N 45°00' W 085°58'812.7
2017-Sep-20 11:54N 44°57' W 086°07'612.7
2017-Sep-20 11:27N 44°54' W 086°14'913.2
2017-Sep-20 10:45N 44°49' W 086°26'312.9
2017-Sep-20 10:30N 44°48' W 086°30'56 1.1
2017-Sep-18 09:10N 45°41' W 086°06'211.6
2017-Sep-18 08:58N 45°42' W 086°03'611.9
2017-Sep-18 08:30N 45°45' W 085°56'611.8
2017-Sep-18 08:00N 45°48' W 085°49'611.7
2017-Sep-18 07:30N 45°51' W 085°42'611.4
2017-Sep-18 07:00N 45°54' W 085°35'611.4
2017-Sep-18 06:30N 45°53' W 085°26'611.6
2017-Sep-18 06:00N 45°53' W 085°18'611.5
2017-Sep-18 05:30N 45°52' W 085°10'611.7
2017-Sep-18 05:00N 45°51' W 085°02'611.7
2017-Sep-18 04:30N 45°50' W 084°53'611.7
2017-Sep-18 04:00N 45°49' W 084°45'510.6
2017-Sep-18 03:30N 45°50' W 084°38'5 9.3
2017-Sep-18 03:00N 45°52' W 084°31'612.0
2017-Sep-18 02:30N 45°52' W 084°23'612.1
2017-Sep-18 02:00N 45°53' W 084°14'611.9
2017-Sep-18 01:30N 45°54' W 084°05'611.8
2017-Sep-18 00:58N 45°56' W 083°57'20 7.8
2017-Sep-17 22:25N 46°14' W 084°10'302 9.6
2017-Sep-16 14:49N 47°02' W 091°25'311.1
2017-Sep-16 14:30N 47°01' W 091°29'511.0
2017-Sep-16 14:00N 46°58' W 091°36'611.0
2017-Sep-16 13:30N 46°54' W 091°42'611.0
2017-Sep-16 13:00N 46°50' W 091°48'511.1
2017-Sep-16 12:30N 46°47' W 091°54'510.4
2017-Sep-16 12:00N 46°43' W 091°59'2 3.0
2017-Sep-16 11:30N 46°42' W 092°01'0 0.4
2017-Sep-16 10:59N 46°42' W 092°01'0 0.0
2017-Sep-16 10:30N 46°42' W 092°01'0 0.0
2017-Sep-16 10:00N 46°42' W 092°01'0 0.0
2017-Sep-16 09:30N 46°42' W 092°01'0 0.0
2017-Sep-16 09:00N 46°42' W 092°01'0 0.0
2017-Sep-16 08:29N 46°42' W 092°01'0 0.0
2017-Sep-16 08:00N 46°42' W 092°01'0 0.0
2017-Sep-16 07:30N 46°42' W 092°01'0 0.0
2017-Sep-16 07:00N 46°42' W 092°01'0 0.0
2017-Sep-16 06:30N 46°42' W 092°01'0 0.0
2017-Sep-16 06:00N 46°42' W 092°01'0 0.0
2017-Sep-16 05:30N 46°42' W 092°01'0 0.0
2017-Sep-16 05:00N 46°42' W 092°01'0 0.0
2017-Sep-16 04:30N 46°42' W 092°01'0 0.0
2017-Sep-16 04:00N 46°42' W 092°01'0 0.0
2017-Sep-16 03:30N 46°42' W 092°01'0 0.0
2017-Sep-16 03:00N 46°42' W 092°01'0 0.0
2017-Sep-16 02:30N 46°42' W 092°01'0 0.0
2017-Sep-16 02:00N 46°42' W 092°01'0 0.0
2017-Sep-16 01:30N 46°42' W 092°01'0 0.0
2017-Sep-16 01:00N 46°42' W 092°01'0 0.0
2017-Sep-16 00:30N 46°42' W 092°01'0 0.0
2017-Sep-15 23:59N 46°42' W 092°01'0 0.0
2017-Sep-15 23:28N 46°42' W 092°01'0 0.0
2017-Sep-15 23:00N 46°42' W 092°01'0 0.0
2017-Sep-15 22:30N 46°42' W 092°01'0 0.0
2017-Sep-15 22:00N 46°42' W 092°01'0 0.0
2017-Sep-15 21:30N 46°42' W 092°01'0 0.0
2017-Sep-15 21:00N 46°42' W 092°01'0 0.0
2017-Sep-15 20:30N 46°42' W 092°01'0 0.0
2017-Sep-15 20:00N 46°42' W 092°01'0 0.0
2017-Sep-15 19:30N 46°42' W 092°01'0 0.0
2017-Sep-15 19:00N 46°42' W 092°01'0 0.0
2017-Sep-15 18:29N 46°42' W 092°01'0 0.0
2017-Sep-15 18:00N 46°42' W 092°01'0 0.0
2017-Sep-15 17:30N 46°42' W 092°01'0 0.0
2017-Sep-15 17:00N 46°42' W 092°01'0 0.0
2017-Sep-15 16:30N 46°42' W 092°01'0 0.0
2017-Sep-15 16:00N 46°42' W 092°01'0 0.0
2017-Sep-15 15:29N 46°42' W 092°01'0 0.0
2017-Sep-15 15:00N 46°42' W 092°01'0 0.0
2017-Sep-15 14:30N 46°42' W 092°01'1 0.1
2017-Sep-15 00:43N 46°42' W 092°03'0 0.0
2017-Sep-15 00:30N 46°42' W 092°03'0 0.0
2017-Sep-14 23:51N 46°42' W 092°03'0 0.0
2017-Sep-14 23:28N 46°42' W 092°03'0 0.0
2017-Sep-14 23:00N 46°42' W 092°03'0 0.0
2017-Sep-14 22:30N 46°42' W 092°03'0 0.0
2017-Sep-14 22:00N 46°42' W 092°03'0 0.0
2017-Sep-14 21:30N 46°42' W 092°03'0 0.0
2017-Sep-14 21:00N 46°42' W 092°03'0 0.0
2017-Sep-14 20:29N 46°42' W 092°03'0 0.0
2017-Sep-14 20:00N 46°42' W 092°03'0 0.7
2017-Sep-14 19:30N 46°43' W 092°03'3 6.2
2017-Sep-14 19:00N 46°45' W 092°05'1 0.9
2017-Sep-14 18:25N 46°46' W 092°06'0 0.0
2017-Sep-14 18:00N 46°46' W 092°06'0 0.2
2017-Sep-14 17:31N 46°45' W 092°06'3 6.1
2017-Sep-14 17:00N 46°43' W 092°03'3 5.1
2017-Sep-14 16:30N 46°43' W 091°59'611.9
2017-Sep-14 16:00N 46°46' W 091°52'612.9
2017-Sep-14 15:30N 46°49' W 091°43'713.0
2017-Sep-14 15:00N 46°52' W 091°35'  
2017-Sep-11 23:37N 46°45' W 092°06'0 4.1
2017-Sep-11 23:30N 46°45' W 092°06'0 0.8
2017-Sep-11 23:00N 46°45' W 092°07'0 0.0
2017-Sep-11 22:30N 46°45' W 092°07'0 0.0
2017-Sep-11 22:00N 46°45' W 092°07'0 0.0
2017-Sep-11 21:29N 46°45' W 092°07'0 0.0
2017-Sep-11 21:00N 46°45' W 092°07'0 0.0
2017-Sep-11 20:30N 46°45' W 092°07'0 0.0
2017-Sep-11 20:00N 46°45' W 092°07'0 0.0
2017-Sep-11 19:30N 46°45' W 092°07'0 0.0
2017-Sep-11 19:00N 46°45' W 092°07'0 0.0
2017-Sep-11 18:30N 46°45' W 092°07'0 0.0
2017-Sep-11 17:59N 46°45' W 092°07'0 0.0
2017-Sep-11 17:28N 46°45' W 092°07'0 0.0
2017-Sep-11 17:00N 46°45' W 092°07'0 0.0
2017-Sep-11 16:30N 46°45' W 092°07'0 0.0
2017-Sep-11 16:00N 46°45' W 092°07'0 0.0
2017-Sep-11 15:24N 46°45' W 092°07'0 0.0
2017-Sep-11 15:00N 46°45' W 092°07'0 0.0
2017-Sep-11 14:30N 46°45' W 092°07'0 0.0
2017-Sep-11 14:00N 46°45' W 092°07'  
Track history (hours):
 
Tides and Currents Weather Stations Pressure Air Temp Water Temp Dewpoint Dewpoint Depression Visibility Wind Speed Wind Dir Waves Ship Positions

American Integrity

Owner: American Steamship Company, Williamsville, NY. More information available from US FCC via Universal Licensing System and Coast Guard Vessel Documentation Center.

Last reported at 2017-Sep-21 01:28 UTC. Time now 2017-Sep-24 05:21 UTC.
Position N 46°24' W 084°14'.

; draft 8 m.

Type: Cargo ship. MMSI: 367120990.

Date/timePositionNaut miles runAvg speedWind from/ knotsBaromVisibWave heightAir tempDewpointWater temp
2017-Sep-21 01:28N 46°24' W 084°14'4 6.5
2017-Sep-21 00:54N 46°21' W 084°12'6 7.1
2017-Sep-21 00:05N 46°16' W 084°07'1 6.8
2017-Sep-20 23:55N 46°15' W 084°06'9 9.3
2017-Sep-20 23:00N 46°07' W 084°01'5 9.9
2017-Sep-20 22:30N 46°03' W 083°58'5 9.9
2017-Sep-20 22:00N 45°59' W 083°53'510.6
2017-Sep-20 21:30N 45°55' W 083°58'612.1
2017-Sep-20 21:00N 45°52' W 084°05'611.8
2017-Sep-20 20:30N 45°51' W 084°14'612.1
2017-Sep-20 20:00N 45°51' W 084°22'612.1
2017-Sep-20 19:30N 45°51' W 084°31'611.7
2017-Sep-20 19:00N 45°50' W 084°39'612.1
2017-Sep-20 18:30N 45°49' W 084°48'612.3
2017-Sep-20 18:00N 45°50' W 084°57'612.5
2017-Sep-20 17:30N 45°50' W 085°06'510.3
2017-Sep-20 17:00N 45°46' W 085°09'612.6
2017-Sep-20 16:30N 45°41' W 085°14'612.8
2017-Sep-20 16:00N 45°36' W 085°20'612.8
2017-Sep-20 15:30N 45°31' W 085°25'612.7
2017-Sep-20 15:00N 45°26' W 085°31'1312.7
2017-Sep-20 14:00N 45°15' W 085°41'612.7
2017-Sep-20 13:30N 45°10' W 085°47'712.8
2017-Sep-20 12:59N 45°05' W 085°52'612.5
2017-Sep-20 12:30N 45°00' W 085°58'812.7
2017-Sep-20 11:54N 44°57' W 086°07'612.7
2017-Sep-20 11:27N 44°54' W 086°14'913.2
2017-Sep-20 10:45N 44°49' W 086°26'312.9
2017-Sep-20 10:30N 44°48' W 086°30'56 1.1
2017-Sep-18 09:10N 45°41' W 086°06'211.6
2017-Sep-18 08:58N 45°42' W 086°03'611.9
2017-Sep-18 08:30N 45°45' W 085°56'611.8
2017-Sep-18 08:00N 45°48' W 085°49'611.7
2017-Sep-18 07:30N 45°51' W 085°42'611.4
2017-Sep-18 07:00N 45°54' W 085°35'611.4
2017-Sep-18 06:30N 45°53' W 085°26'611.6
2017-Sep-18 06:00N 45°53' W 085°18'611.5
2017-Sep-18 05:30N 45°52' W 085°10'611.7
2017-Sep-18 05:00N 45°51' W 085°02'611.7
2017-Sep-18 04:30N 45°50' W 084°53'611.7
2017-Sep-18 04:00N 45°49' W 084°45'510.6
2017-Sep-18 03:30N 45°50' W 084°38'5 9.3
2017-Sep-18 03:00N 45°52' W 084°31'612.0
2017-Sep-18 02:30N 45°52' W 084°23'612.1
2017-Sep-18 02:00N 45°53' W 084°14'611.9
2017-Sep-18 01:30N 45°54' W 084°05'611.8
2017-Sep-18 00:58N 45°56' W 083°57'20 7.8
2017-Sep-17 22:25N 46°14' W 084°10'302 9.6
2017-Sep-16 14:49N 47°02' W 091°25'311.1
2017-Sep-16 14:30N 47°01' W 091°29'511.0
2017-Sep-16 14:00N 46°58' W 091°36'611.0
2017-Sep-16 13:30N 46°54' W 091°42'611.0
2017-Sep-16 13:00N 46°50' W 091°48'511.1
2017-Sep-16 12:30N 46°47' W 091°54'510.4
2017-Sep-16 12:00N 46°43' W 091°59'2 3.0
2017-Sep-16 11:30N 46°42' W 092°01'0 0.4
2017-Sep-16 10:59N 46°42' W 092°01'0 0.0
2017-Sep-16 10:30N 46°42' W 092°01'0 0.0
2017-Sep-16 10:00N 46°42' W 092°01'0 0.0
2017-Sep-16 09:30N 46°42' W 092°01'0 0.0
2017-Sep-16 09:00N 46°42' W 092°01'0 0.0
2017-Sep-16 08:29N 46°42' W 092°01'0 0.0
2017-Sep-16 08:00N 46°42' W 092°01'0 0.0
2017-Sep-16 07:30N 46°42' W 092°01'0 0.0
2017-Sep-16 07:00N 46°42' W 092°01'0 0.0
2017-Sep-16 06:30N 46°42' W 092°01'0 0.0
2017-Sep-16 06:00N 46°42' W 092°01'0 0.0
2017-Sep-16 05:30N 46°42' W 092°01'0 0.0
2017-Sep-16 05:00N 46°42' W 092°01'0 0.0
2017-Sep-16 04:30N 46°42' W 092°01'0 0.0
2017-Sep-16 04:00N 46°42' W 092°01'0 0.0
2017-Sep-16 03:30N 46°42' W 092°01'0 0.0
2017-Sep-16 03:00N 46°42' W 092°01'0 0.0
2017-Sep-16 02:30N 46°42' W 092°01'0 0.0
2017-Sep-16 02:00N 46°42' W 092°01'0 0.0
2017-Sep-16 01:30N 46°42' W 092°01'0 0.0
2017-Sep-16 01:00N 46°42' W 092°01'0 0.0
2017-Sep-16 00:30N 46°42' W 092°01'0 0.0
2017-Sep-15 23:59N 46°42' W 092°01'0 0.0
2017-Sep-15 23:28N 46°42' W 092°01'0 0.0
2017-Sep-15 23:00N 46°42' W 092°01'0 0.0
2017-Sep-15 22:30N 46°42' W 092°01'0 0.0
2017-Sep-15 22:00N 46°42' W 092°01'0 0.0
2017-Sep-15 21:30N 46°42' W 092°01'0 0.0
2017-Sep-15 21:00N 46°42' W 092°01'0 0.0
2017-Sep-15 20:30N 46°42' W 092°01'0 0.0
2017-Sep-15 20:00N 46°42' W 092°01'0 0.0
2017-Sep-15 19:30N 46°42' W 092°01'0 0.0
2017-Sep-15 19:00N 46°42' W 092°01'0 0.0
2017-Sep-15 18:29N 46°42' W 092°01'0 0.0
2017-Sep-15 18:00N 46°42' W 092°01'0 0.0
2017-Sep-15 17:30N 46°42' W 092°01'0 0.0
2017-Sep-15 17:00N 46°42' W 092°01'0 0.0
2017-Sep-15 16:30N 46°42' W 092°01'0 0.0
2017-Sep-15 16:00N 46°42' W 092°01'0 0.0
2017-Sep-15 15:29N 46°42' W 092°01'0 0.0
2017-Sep-15 15:00N 46°42' W 092°01'0 0.0
2017-Sep-15 14:30N 46°42' W 092°01'1 0.1
2017-Sep-15 00:43N 46°42' W 092°03'0 0.0
2017-Sep-15 00:30N 46°42' W 092°03'0 0.0
2017-Sep-14 23:51N 46°42' W 092°03'0 0.0
2017-Sep-14 23:28N 46°42' W 092°03'0 0.0
2017-Sep-14 23:00N 46°42' W 092°03'0 0.0
2017-Sep-14 22:30N 46°42' W 092°03'0 0.0
2017-Sep-14 22:00N 46°42' W 092°03'0 0.0
2017-Sep-14 21:30N 46°42' W 092°03'0 0.0
2017-Sep-14 21:00N 46°42' W 092°03'0 0.0
2017-Sep-14 20:29N 46°42' W 092°03'0 0.0
2017-Sep-14 20:00N 46°42' W 092°03'0 0.7
2017-Sep-14 19:30N 46°43' W 092°03'3 6.2
2017-Sep-14 19:00N 46°45' W 092°05'1 0.9
2017-Sep-14 18:25N 46°46' W 092°06'0 0.0
2017-Sep-14 18:00N 46°46' W 092°06'0 0.2
2017-Sep-14 17:31N 46°45' W 092°06'3 6.1
2017-Sep-14 17:00N 46°43' W 092°03'3 5.1
2017-Sep-14 16:30N 46°43' W 091°59'611.9
2017-Sep-14 16:00N 46°46' W 091°52'612.9
2017-Sep-14 15:30N 46°49' W 091°43'713.0
2017-Sep-14 15:00N 46°52' W 091°35'  
2017-Sep-11 23:37N 46°45' W 092°06'0 4.1
2017-Sep-11 23:30N 46°45' W 092°06'0 0.8
2017-Sep-11 23:00N 46°45' W 092°07'0 0.0
2017-Sep-11 22:30N 46°45' W 092°07'0 0.0
2017-Sep-11 22:00N 46°45' W 092°07'0 0.0
2017-Sep-11 21:29N 46°45' W 092°07'0 0.0
2017-Sep-11 21:00N 46°45' W 092°07'0 0.0
2017-Sep-11 20:30N 46°45' W 092°07'0 0.0
2017-Sep-11 20:00N 46°45' W 092°07'0 0.0
2017-Sep-11 19:30N 46°45' W 092°07'0 0.0
2017-Sep-11 19:00N 46°45' W 092°07'0 0.0
2017-Sep-11 18:30N 46°45' W 092°07'0 0.0
2017-Sep-11 17:59N 46°45' W 092°07'0 0.0
2017-Sep-11 17:28N 46°45' W 092°07'0 0.0
2017-Sep-11 17:00N 46°45' W 092°07'0 0.0
2017-Sep-11 16:30N 46°45' W 092°07'0 0.0
2017-Sep-11 16:00N 46°45' W 092°07'0 0.0
2017-Sep-11 15:24N 46°45' W 092°07'0 0.0
2017-Sep-11 15:00N 46°45' W 092°07'0 0.0
2017-Sep-11 14:30N 46°45' W 092°07'0 0.0
2017-Sep-11 14:00N 46°45' W 092°07'  

Dump ship's entire track history